Time;durP1;ratioP1;P1;durP2;ratioP2;P2;SDS_P1;SDS_P2;PMS_P1;PMS_P2;Temp;Humidity;BMP_temperature;BMP_pressure;BME280_temperature;BME280_humidity;BME280_pressure;Samples;Min_cycle;Max_cycle;Signal;HPM_P1;HPM_P2
2023/06/18 00:00:36;;;;;;;55.80;37.85;;;13.30;99.90;;;;;;5092618;28;20488;-59
2023/06/18 00:03:02;;;;;;;48.35;33.03;;;13.30;99.90;;;;;;5092453;28;20036;-60
2023/06/18 00:05:28;;;;;;;46.65;33.90;;;13.20;99.90;;;;;;5093525;28;20388;-61
2023/06/18 00:07:53;;;;;;;48.45;34.13;;;13.20;99.90;;;;;;5091952;28;20135;-60
2023/06/18 00:10:19;;;;;;;43.30;33.15;;;13.10;99.90;;;;;;5093354;28;20105;-59
2023/06/18 00:12:45;;;;;;;49.45;34.10;;;13.10;99.90;;;;;;5093389;28;20086;-59
2023/06/18 00:15:11;;;;;;;44.78;34.58;;;13.10;99.90;;;;;;5068313;28;20047;-61
2023/06/18 00:17:36;;;;;;;49.65;34.80;;;13.10;99.90;;;;;;5091311;28;20047;-60
2023/06/18 00:20:03;;;;;;;58.40;38.47;;;13.20;99.90;;;;;;5092374;28;20050;-59
2023/06/18 00:22:29;;;;;;;47.55;36.15;;;13.10;99.90;;;;;;5092191;28;20109;-60
2023/06/18 00:24:54;;;;;;;46.58;32.60;;;13.20;99.90;;;;;;5092196;28;20043;-60
2023/06/18 00:27:21;;;;;;;43.15;34.35;;;13.30;99.90;;;;;;5091985;28;20130;-60
2023/06/18 00:29:47;;;;;;;48.53;33.33;;;13.20;99.90;;;;;;5093796;28;20063;-60
2023/06/18 00:32:15;;;;;;;40.60;31.10;;;13.40;99.90;;;;;;5092591;28;20070;-60
2023/06/18 00:34:42;;;;;;;40.58;32.40;;;14.10;99.90;;;;;;5091900;28;20353;-60
2023/06/18 00:37:10;;;;;;;40.03;30.38;;;13.20;99.90;;;;;;5091150;28;20211;-60
2023/06/18 00:39:37;;;;;;;37.30;30.75;;;12.90;99.90;;;;;;5068823;28;20630;-58
2023/06/18 00:42:05;;;;;;;34.85;29.10;;;13.20;99.90;;;;;;5090895;28;20048;-60
2023/06/18 00:44:31;;;;;;;34.38;27.70;;;13.00;99.90;;;;;;5092564;28;20036;-60
2023/06/18 00:46:59;;;;;;;30.17;24.58;;;12.90;99.90;;;;;;5091496;28;20111;-59
2023/06/18 00:49:26;;;;;;;33.42;26.60;;;13.00;99.90;;;;;;5091079;28;20047;-60
2023/06/18 00:51:52;;;;;;;30.70;25.50;;;13.90;99.90;;;;;;5089088;28;20059;-60
2023/06/18 00:54:18;;;;;;;33.25;27.02;;;12.80;99.90;;;;;;5093323;28;20039;-59
2023/06/18 00:56:51;;;;;;;34.85;25.98;;;12.80;99.90;;;;;;5091900;28;20051;-60
2023/06/18 00:59:22;;;;;;;32.28;25.17;;;12.80;99.90;;;;;;5092557;28;20819;-59
2023/06/18 01:01:57;;;;;;;30.45;24.52;;;12.70;99.90;;;;;;5091512;28;20128;-59
2023/06/18 01:04:27;;;;;;;28.55;24.38;;;12.60;99.90;;;;;;5091031;28;20100;-59
2023/06/18 01:06:54;;;;;;;27.90;23.27;;;12.70;99.90;;;;;;5090570;28;20070;-60
2023/06/18 01:09:25;;;;;;;32.53;25.70;;;12.60;99.90;;;;;;5091190;28;20040;-59
2023/06/18 01:11:52;;;;;;;33.13;24.10;;;12.60;99.90;;;;;;5091314;28;20126;-59
2023/06/18 01:14:26;;;;;;;26.25;21.05;;;12.60;99.90;;;;;;5092046;28;20051;-61
2023/06/18 01:16:56;;;;;;;30.20;22.38;;;12.60;99.90;;;;;;5091555;28;21577;-59
2023/06/18 01:19:43;;;;;;;30.45;25.40;;;12.40;99.90;;;;;;5091436;28;20071;-60
2023/06/18 01:22:26;;;;;;;31.23;23.95;;;12.30;99.90;;;;;;5073412;28;20131;-60
2023/06/18 01:24:59;;;;;;;35.88;27.65;;;12.30;99.90;;;;;;5092761;28;20058;-60
2023/06/18 01:27:31;;;;;;;36.92;28.33;;;12.20;99.90;;;;;;5068229;28;20040;-60
2023/06/18 01:29:58;;;;;;;34.45;27.30;;;12.30;99.90;;;;;;5091251;28;20060;-60
2023/06/18 01:32:24;;;;;;;38.47;28.27;;;12.40;99.90;;;;;;5071960;28;20054;-60
2023/06/18 01:34:53;;;;;;;31.50;26.52;;;12.40;99.90;;;;;;5089534;28;20114;-59
2023/06/18 01:37:40;;;;;;;29.63;23.60;;;12.20;99.90;;;;;;5090093;28;20065;-60
2023/06/18 01:40:55;;;;;;;26.33;21.63;;;12.40;99.90;;;;;;5089639;28;20055;-61
2023/06/18 01:43:29;;;;;;;24.92;19.77;;;12.30;99.90;;;;;;4987218;28;20078;-60
2023/06/18 01:45:58;;;;;;;28.02;22.77;;;12.50;99.90;;;;;;5074850;28;20059;-61
2023/06/18 01:48:27;;;;;;;27.20;22.52;;;12.30;99.90;;;;;;5088058;28;20069;-60
2023/06/18 01:50:55;;;;;;;28.50;21.20;;;12.30;99.90;;;;;;5089848;28;20039;-61
2023/06/18 01:53:22;;;;;;;22.00;18.70;;;12.10;99.90;;;;;;5090897;28;20048;-61
2023/06/18 01:55:51;;;;;;;21.83;18.08;;;12.10;99.90;;;;;;5090910;28;20577;-61
2023/06/18 01:58:20;;;;;;;24.70;18.73;;;12.30;99.90;;;;;;5091226;28;20466;-61
2023/06/18 02:00:46;;;;;;;24.50;19.50;;;12.10;99.90;;;;;;5090497;28;20058;-60
2023/06/18 02:03:12;;;;;;;24.92;19.92;;;12.20;99.90;;;;;;5089091;28;20056;-61
2023/06/18 02:05:37;;;;;;;22.77;19.33;;;12.20;99.90;;;;;;5090859;28;20052;-60
2023/06/18 02:08:03;;;;;;;21.65;18.88;;;12.00;99.90;;;;;;5090072;28;20188;-60
2023/06/18 02:10:29;;;;;;;21.38;18.65;;;11.90;99.90;;;;;;5090721;28;20048;-61
2023/06/18 02:12:55;;;;;;;21.15;18.60;;;11.90;99.90;;;;;;5090029;28;20484;-61
2023/06/18 02:15:21;;;;;;;21.08;18.30;;;12.10;99.90;;;;;;5091058;28;20043;-60
2023/06/18 02:17:47;;;;;;;20.88;18.10;;;11.90;99.90;;;;;;5090884;28;20144;-61
2023/06/18 02:20:13;;;;;;;21.05;18.70;;;11.70;99.90;;;;;;5096679;28;20633;-61
2023/06/18 02:22:38;;;;;;;21.13;18.92;;;11.90;99.90;;;;;;5075845;28;20451;-61
2023/06/18 02:25:05;;;;;;;21.33;18.58;;;11.90;99.90;;;;;;5095891;28;20051;-60
2023/06/18 02:27:31;;;;;;;23.00;20.13;;;11.90;99.90;;;;;;5095739;28;20068;-61
2023/06/18 02:30:00;;;;;;;23.25;19.42;;;12.00;99.90;;;;;;5094774;28;20035;-61
2023/06/18 02:32:28;;;;;;;20.52;17.63;;;11.80;99.90;;;;;;5094855;28;20040;-61
2023/06/18 02:34:55;;;;;;;21.38;16.75;;;11.80;99.90;;;;;;5094332;28;20210;-61
2023/06/18 02:37:21;;;;;;;23.15;18.08;;;12.00;99.90;;;;;;5095653;28;20107;-60
2023/06/18 02:39:46;;;;;;;25.80;18.90;;;11.70;99.90;;;;;;5093805;28;20373;-61
2023/06/18 02:42:12;;;;;;;24.05;17.48;;;11.80;99.90;;;;;;5094853;28;20162;-61
2023/06/18 02:44:41;;;;;;;22.63;17.05;;;11.70;99.90;;;;;;5060503;28;20453;-61
2023/06/18 02:47:08;;;;;;;21.10;14.88;;;11.70;99.90;;;;;;5093398;28;20131;-60
2023/06/18 02:49:34;;;;;;;19.50;15.30;;;11.70;99.90;;;;;;5093322;28;20035;-61
2023/06/18 02:52:00;;;;;;;22.75;16.52;;;11.60;99.90;;;;;;5092940;28;20047;-61
2023/06/18 02:54:26;;;;;;;20.55;16.40;;;11.70;99.90;;;;;;5093309;28;20047;-61
2023/06/18 02:56:52;;;;;;;18.33;15.43;;;11.50;99.90;;;;;;5091966;28;21051;-60
2023/06/18 02:59:17;;;;;;;17.83;15.65;;;11.60;99.90;;;;;;5076957;28;20077;-61
2023/06/18 03:01:44;;;;;;;18.02;15.43;;;11.50;99.90;;;;;;5092484;28;20028;-61
2023/06/18 03:04:11;;;;;;;19.17;15.75;;;11.60;99.90;;;;;;5093759;28;20039;-60
2023/06/18 03:06:37;;;;;;;18.13;15.75;;;11.40;99.90;;;;;;5091815;28;20055;-61
2023/06/18 03:09:04;;;;;;;18.42;15.80;;;11.40;99.90;;;;;;5094463;28;20039;-60
2023/06/18 03:11:30;;;;;;;16.98;14.63;;;11.40;99.90;;;;;;5093064;28;20046;-60
2023/06/18 03:13:56;;;;;;;14.20;11.77;;;11.50;99.90;;;;;;5093287;28;20054;-61
2023/06/18 03:16:23;;;;;;;11.73;9.63;;;11.20;99.90;;;;;;5093960;28;20070;-60
2023/06/18 03:18:50;;;;;;;19.30;15.30;;;11.30;99.90;;;;;;5091450;28;20040;-61
2023/06/18 03:21:15;;;;;;;21.52;16.95;;;11.40;99.90;;;;;;5091989;28;20074;-61
2023/06/18 03:23:43;;;;;;;24.73;19.20;;;11.40;99.90;;;;;;5092079;28;20127;-61
2023/06/18 03:26:09;;;;;;;47.65;28.73;;;11.30;99.90;;;;;;5093509;28;20881;-60
2023/06/18 03:28:36;;;;;;;57.55;31.95;;;11.40;99.90;;;;;;5093009;28;20039;-61
2023/06/18 03:31:02;;;;;;;60.80;31.42;;;11.60;99.90;;;;;;5092548;28;20132;-61
2023/06/18 03:33:31;;;;;;;56.63;31.83;;;11.70;99.90;;;;;;5092128;28;20060;-60
2023/06/18 03:36:00;;;;;;;74.78;34.80;;;11.80;99.90;;;;;;5092398;28;20043;-61
2023/06/18 03:38:27;;;;;;;57.85;32.75;;;11.90;99.90;;;;;;5074965;28;21490;-60
2023/06/18 03:40:53;;;;;;;83.13;36.60;;;12.10;99.90;;;;;;5093210;28;20039;-60
2023/06/18 03:43:19;;;;;;;93.97;37.83;;;12.20;99.90;;;;;;5093036;28;20042;-59
2023/06/18 03:45:44;;;;;;;108.00;40.42;;;12.20;99.90;;;;;;5093128;28;20054;-60
2023/06/18 03:48:10;;;;;;;104.47;39.63;;;12.40;99.90;;;;;;5090609;28;20128;-61
2023/06/18 03:50:36;;;;;;;91.47;37.80;;;12.30;99.90;;;;;;5075556;28;20047;-61
2023/06/18 03:53:02;;;;;;;103.88;40.45;;;12.50;99.90;;;;;;5091745;28;20050;-61
2023/06/18 03:55:28;;;;;;;115.13;41.92;;;12.40;99.90;;;;;;5075935;28;20051;-61
2023/06/18 03:57:54;;;;;;;131.32;43.92;;;12.70;99.90;;;;;;5093671;28;20096;-60
2023/06/18 04:00:20;;;;;;;113.72;39.45;;;12.50;99.90;;;;;;5091115;28;20051;-61
2023/06/18 04:02:46;;;;;;;170.52;44.63;;;12.70;99.90;;;;;;5092529;28;20070;-62
2023/06/18 04:05:12;;;;;;;61.53;35.00;;;12.80;99.90;;;;;;5092707;28;20162;-62
2023/06/18 04:07:38;;;;;;;64.75;35.60;;;13.10;99.90;;;;;;5092249;28;20056;-61
2023/06/18 04:10:05;;;;;;;65.10;35.00;;;13.10;99.90;;;;;;5092276;28;20036;-61
2023/06/18 04:12:30;;;;;;;58.95;33.60;;;13.00;99.90;;;;;;5092042;28;20048;-62
2023/06/18 04:14:56;;;;;;;60.30;35.00;;;13.00;99.90;;;;;;5093217;28;20454;-62
2023/06/18 04:17:22;;;;;;;59.92;35.67;;;13.10;99.90;;;;;;5091482;28;20114;-61
2023/06/18 04:19:47;;;;;;;60.55;34.83;;;13.30;99.90;;;;;;5090278;28;20031;-61
2023/06/18 04:22:13;;;;;;;78.93;37.53;;;13.30;99.90;;;;;;5091355;28;20074;-62
2023/06/18 04:24:39;;;;;;;101.05;40.15;;;13.50;99.90;;;;;;5073828;28;20101;-62
2023/06/18 04:27:05;;;;;;;97.93;39.03;;;13.40;99.90;;;;;;5090471;28;20036;-61
2023/06/18 04:29:31;;;;;;;67.07;35.67;;;13.70;99.90;;;;;;5092354;28;20046;-61
2023/06/18 04:31:56;;;;;;;62.03;36.38;;;13.70;99.90;;;;;;5090721;28;20036;-60
2023/06/18 04:34:22;;;;;;;84.82;35.58;;;13.70;99.90;;;;;;5089603;28;20047;-61
2023/06/18 04:36:48;;;;;;;98.22;35.15;;;13.70;99.90;;;;;;5091363;28;20055;-61
2023/06/18 04:39:13;;;;;;;79.05;35.65;;;13.70;99.90;;;;;;5091388;28;20040;-60
2023/06/18 04:41:39;;;;;;;93.20;35.03;;;13.80;99.90;;;;;;5089556;28;20122;-62
2023/06/18 04:44:05;;;;;;;70.47;34.08;;;13.80;99.90;;;;;;5071888;28;20052;-61
2023/06/18 04:46:33;;;;;;;81.75;37.28;;;14.20;99.90;;;;;;5091769;28;20043;-62
2023/06/18 04:48:59;;;;;;;118.68;38.95;;;14.00;99.90;;;;;;5090703;28;20039;-62
2023/06/18 04:51:25;;;;;;;97.93;37.72;;;13.80;99.90;;;;;;5089544;28;20445;-61
2023/06/18 04:53:52;;;;;;;64.47;34.40;;;14.00;99.90;;;;;;5090822;28;20114;-61
2023/06/18 04:56:19;;;;;;;130.25;40.95;;;14.00;99.90;;;;;;5075227;28;20405;-61
2023/06/18 04:58:44;;;;;;;139.65;42.63;;;13.80;99.90;;;;;;5090127;28;20067;-61
2023/06/18 05:01:10;;;;;;;61.92;36.53;;;13.90;99.90;;;;;;5070993;28;20399;-60
2023/06/18 05:03:36;;;;;;;67.07;35.95;;;13.90;99.90;;;;;;5090753;28;20051;-61
2023/06/18 05:06:02;;;;;;;78.78;36.70;;;14.00;99.90;;;;;;5089298;28;20047;-61
2023/06/18 05:08:28;;;;;;;71.22;37.22;;;14.00;99.90;;;;;;5090321;28;20043;-60
2023/06/18 05:10:54;;;;;;;75.22;38.03;;;14.20;99.90;;;;;;5090523;28;20524;-61
2023/06/18 05:13:20;;;;;;;92.05;39.67;;;14.20;99.90;;;;;;5092413;28;20051;-61
2023/06/18 05:15:46;;;;;;;82.43;39.70;;;14.40;99.90;;;;;;5072550;28;20043;-61
2023/06/18 05:18:12;;;;;;;79.80;40.70;;;14.40;99.90;;;;;;5090129;28;20101;-62
2023/06/18 05:20:38;;;;;;;56.22;34.25;;;14.20;99.90;;;;;;5073780;28;20043;-61
2023/06/18 05:23:03;;;;;;;57.22;36.10;;;14.40;99.90;;;;;;5090521;28;20454;-61
2023/06/18 05:25:29;;;;;;;63.65;37.88;;;14.70;99.90;;;;;;5091714;28;20043;-60
2023/06/18 05:27:55;;;;;;;70.35;38.67;;;14.50;99.90;;;;;;5072649;28;20089;-60
2023/06/18 05:30:21;;;;;;;60.55;37.00;;;14.80;99.90;;;;;;5091291;28;20047;-60
2023/06/18 05:32:46;;;;;;;62.47;37.03;;;14.80;99.90;;;;;;5089449;28;20088;-60
2023/06/18 05:35:12;;;;;;;62.70;37.47;;;14.80;99.90;;;;;;5090494;28;20121;-61
2023/06/18 05:37:38;;;;;;;62.95;36.60;;;15.00;99.90;;;;;;5091473;28;20047;-61
2023/06/18 05:40:04;;;;;;;48.53;33.72;;;15.10;99.90;;;;;;5089745;28;20046;-61
2023/06/18 05:42:30;;;;;;;55.03;34.90;;;15.20;99.90;;;;;;5090183;28;20042;-60
2023/06/18 05:44:56;;;;;;;50.47;33.88;;;15.40;99.90;;;;;;5089137;28;20039;-60
2023/06/18 05:47:23;;;;;;;43.92;32.35;;;15.40;99.90;;;;;;5091162;28;21032;-60
2023/06/18 05:49:48;;;;;;;46.97;32.55;;;15.30;99.90;;;;;;5089723;28;20488;-61
2023/06/18 05:52:14;;;;;;;42.58;30.13;;;15.50;99.90;;;;;;5089800;28;20035;-61
2023/06/18 05:54:40;;;;;;;48.45;33.97;;;15.70;99.90;;;;;;5094773;28;20051;-61
2023/06/18 05:57:05;;;;;;;46.35;32.67;;;15.70;99.90;;;;;;5096308;28;20539;-61
2023/06/18 05:59:31;;;;;;;39.85;29.88;;;15.90;99.90;;;;;;5094165;28;20035;-60
2023/06/18 06:01:57;;;;;;;38.53;30.17;;;15.90;99.90;;;;;;5094326;28;20123;-60
2023/06/18 06:04:23;;;;;;;42.83;31.73;;;16.10;99.90;;;;;;5093170;28;20055;-61
2023/06/18 06:06:49;;;;;;;40.10;29.27;;;16.20;99.90;;;;;;5095202;28;20417;-61
2023/06/18 06:09:15;;;;;;;34.58;28.23;;;16.40;99.90;;;;;;5092805;28;20043;-61
2023/06/18 06:11:41;;;;;;;35.85;29.00;;;16.50;99.90;;;;;;5095039;28;20043;-61
2023/06/18 06:14:07;;;;;;;37.17;28.83;;;16.80;99.90;;;;;;5094831;28;20755;-61
2023/06/18 06:16:32;;;;;;;36.45;27.55;;;17.00;99.90;;;;;;5065951;28;20093;-61
2023/06/18 06:18:58;;;;;;;33.50;27.17;;;17.20;99.90;;;;;;5092814;28;20035;-61
2023/06/18 06:21:24;;;;;;;33.67;26.70;;;17.40;99.90;;;;;;5094223;28;20040;-61
2023/06/18 06:23:50;;;;;;;30.70;27.05;;;17.70;99.90;;;;;;5094477;28;20229;-60
2023/06/18 06:26:15;;;;;;;33.05;25.52;;;17.80;99.90;;;;;;5096421;28;20040;-61
2023/06/18 06:28:41;;;;;;;34.05;26.17;;;17.70;99.90;;;;;;5092673;28;20036;-61
2023/06/18 06:31:07;;;;;;;31.20;24.10;;;18.10;99.90;;;;;;5093897;28;20408;-61
2023/06/18 06:33:33;;;;;;;32.58;26.25;;;17.90;99.90;;;;;;5094792;28;20031;-61
2023/06/18 06:35:58;;;;;;;30.33;25.88;;;17.90;99.90;;;;;;5093869;28;20100;-61
2023/06/18 06:38:24;;;;;;;32.05;25.48;;;17.90;99.90;;;;;;5092862;28;20027;-61
2023/06/18 06:40:50;;;;;;;28.88;23.85;;;18.10;99.90;;;;;;5096043;28;20073;-61
2023/06/18 06:43:16;;;;;;;25.90;23.08;;;18.10;99.90;;;;;;5093527;28;20450;-61
2023/06/18 06:45:41;;;;;;;26.38;22.75;;;18.20;99.90;;;;;;5076067;28;20600;-60
2023/06/18 06:48:07;;;;;;;29.95;23.77;;;18.20;99.90;;;;;;5093396;28;20048;-61
2023/06/18 06:50:33;;;;;;;28.33;23.20;;;18.50;99.90;;;;;;5094976;28;20039;-61
2023/06/18 06:52:58;;;;;;;26.38;21.67;;;18.80;99.90;;;;;;5075696;28;20120;-61
2023/06/18 06:55:24;;;;;;;25.70;20.90;;;19.20;99.90;;;;;;5094776;28;20483;-62
2023/06/18 06:57:50;;;;;;;23.67;20.45;;;19.30;99.90;;;;;;5094431;28;20045;-61
2023/06/18 07:00:16;;;;;;;25.48;20.55;;;19.40;99.90;;;;;;5094516;28;20043;-61
2023/06/18 07:02:42;;;;;;;23.95;19.27;;;19.70;99.90;;;;;;5075752;28;20325;-61
2023/06/18 07:05:09;;;;;;;21.38;19.05;;;20.10;99.90;;;;;;5093088;28;20154;-61
2023/06/18 07:07:35;;;;;;;22.55;18.55;;;20.10;99.90;;;;;;5092390;28;20308;-61
2023/06/18 07:10:02;;;;;;;23.45;19.38;;;20.60;99.90;;;;;;5095984;28;20043;-62
2023/06/18 07:12:28;;;;;;;29.20;19.02;;;22.40;99.90;;;;;;5091352;28;20059;-61
2023/06/18 07:14:53;;;;;;;20.10;17.65;;;20.70;99.90;;;;;;5092624;28;20043;-62
2023/06/18 07:17:19;;;;;;;20.52;18.35;;;21.40;99.90;;;;;;5093677;28;20550;-61
2023/06/18 07:19:45;;;;;;;23.67;18.17;;;21.30;99.90;;;;;;5093821;28;20065;-62
2023/06/18 07:22:11;;;;;;;19.35;17.25;;;21.70;99.90;;;;;;5091558;28;20052;-61
2023/06/18 07:24:36;;;;;;;19.38;16.83;;;22.40;99.90;;;;;;5093036;28;20243;-60
2023/06/18 07:27:02;;;;;;;18.85;16.80;;;23.20;99.90;;;;;;5094929;28;20680;-61
2023/06/18 07:29:28;;;;;;;19.02;15.65;;;23.40;99.90;;;;;;5093737;28;20035;-61
2023/06/18 07:31:53;;;;;;;19.83;16.27;;;23.50;99.90;;;;;;5074038;28;20036;-61
2023/06/18 07:34:19;;;;;;;18.90;15.32;;;23.50;99.90;;;;;;5090536;28;20093;-59
2023/06/18 07:36:45;;;;;;;18.88;15.45;;;23.30;99.90;;;;;;5074905;28;20043;-60
2023/06/18 07:39:11;;;;;;;18.70;14.32;;;22.90;99.90;;;;;;5091315;28;20495;-60
2023/06/18 07:41:36;;;;;;;20.45;16.00;;;22.70;99.90;;;;;;5090381;28;20075;-58
2023/06/18 07:44:02;;;;;;;103.70;18.05;;;23.20;99.90;;;;;;5091905;28;20104;-59
2023/06/18 07:46:28;;;;;;;23.85;14.95;;;23.80;99.90;;;;;;5075009;28;20135;-60
2023/06/18 07:48:54;;;;;;;19.33;14.13;;;23.80;99.90;;;;;;5092330;28;20043;-59
2023/06/18 07:51:20;;;;;;;17.25;12.60;;;23.70;99.90;;;;;;5092879;28;20102;-58
2023/06/18 07:53:45;;;;;;;16.60;12.13;;;23.80;99.90;;;;;;5074139;28;20098;-59
2023/06/18 07:56:12;;;;;;;20.45;12.30;;;23.70;99.90;;;;;;5094484;28;20040;-59
2023/06/18 07:58:38;;;;;;;16.83;12.73;;;24.00;99.90;;;;;;5092512;28;20086;-59
2023/06/18 08:01:03;;;;;;;16.77;12.02;;;24.20;99.90;;;;;;5092747;28;20123;-58
2023/06/18 08:03:29;;;;;;;15.20;11.52;;;24.00;99.90;;;;;;5092799;28;20051;-58
2023/06/18 08:05:55;;;;;;;14.50;11.55;;;23.70;99.90;;;;;;5091815;28;20155;-58
2023/06/18 08:08:21;;;;;;;14.63;11.77;;;23.60;99.90;;;;;;5092800;28;20050;-58
2023/06/18 08:10:46;;;;;;;14.38;12.07;;;23.40;99.90;;;;;;5092901;28;20461;-59
2023/06/18 08:13:12;;;;;;;13.68;10.98;;;23.30;99.90;;;;;;5092670;28;20050;-58
2023/06/18 08:15:38;;;;;;;15.55;11.25;;;23.20;99.90;;;;;;5074831;28;20328;-59
2023/06/18 08:18:04;;;;;;;13.57;11.00;;;23.30;99.90;;;;;;5092467;28;20044;-58
2023/06/18 08:20:30;;;;;;;13.43;10.07;;;23.00;99.90;;;;;;5093375;28;20050;-58
2023/06/18 08:22:56;;;;;;;13.63;9.65;;;23.20;99.90;;;;;;5093074;28;20051;-58
2023/06/18 08:25:22;;;;;;;15.98;10.45;;;23.10;99.90;;;;;;5058296;28;20039;-58
2023/06/18 08:27:47;;;;;;;17.52;10.60;;;23.00;99.90;;;;;;5074985;28;21111;-58
2023/06/18 08:30:13;;;;;;;12.88;9.60;;;23.00;99.90;;;;;;5091904;28;20450;-58
2023/06/18 08:32:39;;;;;;;14.55;11.07;;;22.90;99.90;;;;;;5091913;28;20138;-58
2023/06/18 08:35:06;;;;;;;16.10;10.48;;;23.20;99.90;;;;;;5091544;28;20519;-59
2023/06/18 08:37:32;;;;;;;13.88;11.20;;;23.00;99.90;;;;;;5091577;28;20115;-59
2023/06/18 08:39:57;;;;;;;15.88;10.05;;;23.20;99.90;;;;;;5091608;28;21348;-60
2023/06/18 08:42:23;;;;;;;17.13;10.50;;;23.40;99.90;;;;;;5092463;28;20179;-60
2023/06/18 08:44:50;;;;;;;12.10;9.77;;;23.70;99.90;;;;;;5091634;28;20047;-59
2023/06/18 08:47:17;;;;;;;13.02;9.73;;;22.40;99.90;;;;;;5091347;28;20042;-59
2023/06/18 08:49:45;;;;;;;12.75;9.93;;;25.10;99.90;;;;;;5090908;28;20048;-59
2023/06/18 08:52:12;;;;;;;14.23;10.07;;;25.80;99.90;;;;;;5092549;28;20565;-59
2023/06/18 08:54:38;;;;;;;13.60;11.25;;;26.30;99.90;;;;;;5090650;28;20476;-59
2023/06/18 08:57:13;;;;;;;14.77;9.63;;;26.60;99.90;;;;;;5092773;28;20464;-59
2023/06/18 08:59:40;;;;;;;12.38;9.52;;;26.50;99.90;;;;;;5090726;28;20027;-60
2023/06/18 09:02:06;;;;;;;11.10;8.68;;;26.40;99.90;;;;;;5090895;28;20047;-60
2023/06/18 09:04:35;;;;;;;11.35;9.18;;;26.50;99.90;;;;;;5090119;28;20339;-59
2023/06/18 09:07:03;;;;;;;16.50;9.75;;;26.60;99.90;;;;;;5091473;28;20067;-59
2023/06/18 09:09:29;;;;;;;11.93;9.20;;;26.50;99.90;;;;;;5091423;28;20085;-59
2023/06/18 09:11:56;;;;;;;12.35;8.70;;;26.10;99.90;;;;;;5091632;28;20047;-59
2023/06/18 09:14:23;;;;;;;14.25;8.38;;;26.40;99.90;;;;;;5090637;28;20050;-59
2023/06/18 09:16:49;;;;;;;10.88;7.05;;;26.30;99.90;;;;;;5091254;28;20035;-59
2023/06/18 09:19:16;;;;;;;10.32;7.70;;;26.50;99.90;;;;;;5092566;28;20043;-60
2023/06/18 09:21:43;;;;;;;12.48;7.93;;;26.20;99.90;;;;;;5090667;28;20498;-60
2023/06/18 09:24:24;;;;;;;10.75;7.82;;;25.80;99.90;;;;;;5071647;28;20118;-60
2023/06/18 09:27:06;;;;;;;9.35;7.65;;;25.70;99.90;;;;;;5073577;28;20493;-59
2023/06/18 09:29:37;;;;;;;10.85;7.75;;;25.60;99.90;;;;;;5090075;28;20036;-59
2023/06/18 09:32:11;;;;;;;14.25;7.63;;;25.40;99.90;;;;;;5089184;28;20078;-59
2023/06/18 09:34:38;;;;;;;11.05;7.72;;;25.40;99.90;;;;;;5089503;28;20036;-59
2023/06/18 09:37:05;;;;;;;10.43;7.68;;;25.40;99.90;;;;;;5091247;28;20051;-59
2023/06/18 09:39:32;;;;;;;9.07;6.15;;;25.50;99.90;;;;;;5091681;28;20040;-59
2023/06/18 09:42:05;;;;;;;8.98;6.35;;;25.70;99.90;;;;;;5089529;28;20131;-60
2023/06/18 09:44:31;;;;;;;8.30;6.25;;;25.90;99.90;;;;;;5091355;28;20076;-59
2023/06/18 09:46:57;;;;;;;10.38;6.25;;;25.80;99.90;;;;;;5090712;28;20622;-59
2023/06/18 09:49:24;;;;;;;9.63;6.97;;;26.00;99.90;;;;;;5090228;28;20036;-59
2023/06/18 09:51:50;;;;;;;10.35;6.63;;;26.40;99.90;;;;;;5092299;28;20047;-59
2023/06/18 09:54:17;;;;;;;10.00;6.03;;;26.20;99.90;;;;;;5090860;28;20128;-59
2023/06/18 09:57:00;;;;;;;8.43;6.15;;;26.20;99.90;;;;;;5090807;28;20801;-59
2023/06/18 09:59:27;;;;;;;12.27;5.90;;;26.30;99.90;;;;;;5091722;28;20114;-59
2023/06/18 10:01:54;;;;;;;7.53;5.97;;;26.60;99.90;;;;;;5091942;28;20466;-60
2023/06/18 10:04:20;;;;;;;11.23;6.07;;;26.40;99.90;;;;;;5088768;28;20047;-59
2023/06/18 10:06:51;;;;;;;10.30;5.53;;;26.60;99.90;;;;;;5090890;28;20048;-59
2023/06/18 10:09:19;;;;;;;7.63;5.47;;;26.50;99.90;;;;;;5090061;28;20065;-59
2023/06/18 10:11:48;;;;;;;8.90;5.60;;;26.20;99.90;;;;;;5090620;28;20616;-59
2023/06/18 10:14:16;;;;;;;7.88;5.30;;;26.20;99.90;;;;;;5090293;28;20063;-59
2023/06/18 10:16:50;;;;;;;7.35;5.15;;;26.40;99.90;;;;;;5091363;28;20039;-59
2023/06/18 10:19:23;;;;;;;7.65;5.63;;;26.40;99.90;;;;;;5089748;28;20106;-59
2023/06/18 10:21:58;;;;;;;7.90;5.40;;;26.40;99.90;;;;;;5090399;28;20169;-59
2023/06/18 10:24:39;;;;;;;12.38;5.70;;;26.50;99.90;;;;;;5089138;28;20554;-60
2023/06/18 10:27:06;;;;;;;7.47;5.18;;;26.50;99.90;;;;;;5091060;28;20130;-59
2023/06/18 10:29:32;;;;;;;8.00;5.78;;;26.50;99.90;;;;;;5089475;28;20132;-59
2023/06/18 10:32:04;;;;;;;8.63;6.00;;;26.50;99.90;;;;;;5070861;28;20043;-59
2023/06/18 10:34:31;;;;;;;9.18;6.10;;;26.80;99.90;;;;;;5089614;28;20154;-58
2023/06/18 10:36:58;;;;;;;9.18;5.60;;;26.60;99.90;;;;;;5090139;28;20115;-58
2023/06/18 10:39:25;;;;;;;8.63;6.25;;;26.50;99.90;;;;;;5091918;28;20043;-59
2023/06/18 10:41:54;;;;;;;9.77;6.22;;;26.80;99.90;;;;;;5095977;28;20035;-59
2023/06/18 10:44:48;;;;;;;9.77;5.90;;;26.70;99.90;;;;;;5094750;28;20122;-59
2023/06/18 10:47:30;;;;;;;8.70;5.32;;;27.10;99.90;;;;;;5076766;28;20055;-59
2023/06/18 10:50:17;;;;;;;11.63;6.57;;;27.60;99.90;;;;;;5094017;28;20050;-59
2023/06/18 10:52:50;;;;;;;9.57;6.10;;;27.50;99.90;;;;;;5094398;28;20062;-59
2023/06/18 10:55:28;;;;;;;8.35;5.90;;;27.80;99.90;;;;;;5093411;28;20086;-58
2023/06/18 10:58:01;;;;;;;9.18;5.80;;;27.90;99.90;;;;;;5096799;28;20461;-59
2023/06/18 11:00:35;;;;;;;8.10;6.38;;;28.10;99.90;;;;;;5093816;28;20484;-59
2023/06/18 11:03:11;;;;;;;6.95;5.72;;;28.10;99.90;;;;;;5093781;28;20044;-59
2023/06/18 11:05:49;;;;;;;11.32;5.88;;;28.10;99.90;;;;;;5094528;28;20048;-58
2023/06/18 11:08:17;;;;;;;7.65;5.90;;;28.30;99.90;;;;;;5093664;28;20161;-59
2023/06/18 11:10:47;;;;;;;10.65;6.63;;;28.20;99.90;;;;;;5094178;28;20036;-59
2023/06/18 11:13:14;;;;;;;7.18;5.75;;;28.00;99.90;;;;;;5094162;28;20412;-58
2023/06/18 11:15:57;;;;;;;11.18;5.35;;;27.90;99.90;;;;;;5074983;28;20040;-58
2023/06/18 11:18:26;;;;;;;9.60;5.68;;;28.00;99.90;;;;;;5092049;28;20051;-59
2023/06/18 11:20:54;;;;;;;10.05;6.20;;;27.70;99.90;;;;;;5092982;28;20383;-58
2023/06/18 11:23:21;;;;;;;7.65;6.03;;;27.70;99.90;;;;;;5092633;28;20140;-58
2023/06/18 11:25:47;;;;;;;7.60;5.65;;;27.60;99.90;;;;;;5092848;28;20070;-59
2023/06/18 11:28:13;;;;;;;10.43;5.50;;;27.80;99.90;;;;;;5094559;28;20047;-59
2023/06/18 11:30:46;;;;;;;9.57;5.65;;;27.50;99.90;;;;;;5092958;28;20779;-59
2023/06/18 11:33:11;;;;;;;7.68;5.30;;;27.30;99.90;;;;;;5092547;28;20370;-58
2023/06/18 11:35:37;;;;;;;10.30;5.30;;;27.80;99.90;;;;;;5092271;28;20046;-59
2023/06/18 11:38:04;;;;;;;6.57;5.22;;;27.90;99.90;;;;;;5093592;28;20035;-60
2023/06/18 11:40:29;;;;;;;7.47;5.65;;;28.10;99.90;;;;;;5093673;28;20032;-59
2023/06/18 11:42:55;;;;;;;11.50;5.85;;;28.20;99.90;;;;;;5092155;28;20062;-58
2023/06/18 11:45:21;;;;;;;8.93;5.88;;;28.00;99.90;;;;;;5091559;28;20063;-59
2023/06/18 11:47:51;;;;;;;7.60;5.55;;;28.10;99.90;;;;;;5092066;28;20458;-59
2023/06/18 11:50:19;;;;;;;9.43;5.72;;;28.00;99.90;;;;;;5091632;28;20051;-59
2023/06/18 11:52:45;;;;;;;7.32;5.07;;;28.00;99.90;;;;;;5092816;28;20047;-59
2023/06/18 11:55:11;;;;;;;10.25;5.70;;;27.90;99.90;;;;;;5092861;28;20409;-59
2023/06/18 11:57:37;;;;;;;9.30;5.30;;;27.70;99.90;;;;;;5092936;28;20412;-59
2023/06/18 12:00:10;;;;;;;7.05;5.00;;;27.80;99.90;;;;;;5091658;28;20036;-59
2023/06/18 12:02:40;;;;;;;7.35;5.40;;;27.90;99.90;;;;;;5091435;28;20511;-59
2023/06/18 12:05:07;;;;;;;6.97;5.45;;;28.00;99.90;;;;;;5093111;28;20050;-59
2023/06/18 12:07:34;;;;;;;9.07;5.70;;;28.40;99.90;;;;;;5092170;28;20052;-59
2023/06/18 12:10:08;;;;;;;11.23;6.13;;;28.40;99.90;;;;;;5074198;28;20074;-59
2023/06/18 12:12:46;;;;;;;9.55;5.60;;;28.30;99.90;;;;;;5093190;28;20048;-59
2023/06/18 12:15:19;;;;;;;9.45;5.05;;;28.60;99.90;;;;;;5094234;28;20134;-59
2023/06/18 12:17:58;;;;;;;6.75;5.45;;;28.40;99.90;;;;;;5091684;28;20074;-60
2023/06/18 12:20:28;;;;;;;14.02;5.70;;;28.60;99.90;;;;;;5091839;28;20443;-60
2023/06/18 12:22:59;;;;;;;8.35;5.55;;;29.00;99.90;;;;;;5091234;28;20130;-59
2023/06/18 12:25:27;;;;;;;8.10;5.60;;;28.90;99.90;;;;;;5089974;28;20661;-59
2023/06/18 12:27:59;;;;;;;8.98;5.20;;;29.00;99.90;;;;;;5092311;28;20036;-60
2023/06/18 12:30:36;;;;;;;8.15;5.68;;;29.20;99.90;;;;;;5091031;28;20048;-59
2023/06/18 12:33:03;;;;;;;11.60;5.85;;;29.10;99.90;;;;;;5091862;28;20104;-59